createdAt,value
2023-03-22T00:00:17.697Z,98689.00
2023-03-22T00:02:47.894Z,98679.34
2023-03-22T00:05:16.804Z,98674.72
2023-03-22T00:07:45.516Z,98680.59
2023-03-22T00:10:14.282Z,98683.34
2023-03-22T00:12:42.919Z,98688.69
2023-03-22T00:15:12.735Z,98691.13
2023-03-22T00:17:42.178Z,98686.41
2023-03-22T00:20:14.914Z,98682.13
2023-03-22T00:22:43.639Z,98687.41
2023-03-22T00:25:12.340Z,98682.13
2023-03-22T00:27:41.291Z,98682.63
2023-03-22T00:30:12.700Z,98681.97
2023-03-22T00:32:42.896Z,98674.16
2023-03-22T00:35:13.602Z,98660.03
2023-03-22T00:37:42.420Z,98657.91
2023-03-22T00:40:14.015Z,98651.75
2023-03-22T00:42:43.311Z,98649.88
2023-03-22T00:45:14.046Z,98647.06
2023-03-22T00:47:42.770Z,98643.16
2023-03-22T00:50:13.101Z,98637.25
2023-03-22T00:52:41.769Z,98645.75
2023-03-22T00:55:10.823Z,98638.94
2023-03-22T00:57:39.746Z,98644.97
2023-03-22T01:00:13.744Z,98653.06
2023-03-22T01:02:43.241Z,98637.00
2023-03-22T01:05:17.871Z,98643.16
2023-03-22T01:07:46.780Z,98644.81
2023-03-22T01:10:15.468Z,98646.09
2023-03-22T01:12:44.891Z,98642.91
2023-03-22T01:15:14.145Z,98644.28
2023-03-22T01:17:43.392Z,98636.19
2023-03-22T01:20:13.981Z,98641.19
2023-03-22T01:22:45.264Z,98650.41
2023-03-22T01:25:14.745Z,98640.63
2023-03-22T01:27:43.639Z,98636.88
2023-03-22T01:30:13.591Z,98629.31
2023-03-22T01:32:42.397Z,98624.66
2023-03-22T01:35:12.098Z,98634.34
2023-03-22T01:37:44.414Z,98624.69
2023-03-22T01:40:15.934Z,98630.34
2023-03-22T01:42:44.864Z,98629.84
2023-03-22T01:45:43.532Z,98618.47
2023-03-22T01:48:34.621Z,98620.66
2023-03-22T01:51:11.030Z,98619.34
2023-03-22T01:53:58.824Z,98610.09
2023-03-22T01:56:32.713Z,98611.25
2023-03-22T01:59:02.915Z,98613.03
2023-03-22T02:01:47.659Z,98607.00
2023-03-22T02:04:21.220Z,98604.91
2023-03-22T02:06:54.117Z,98608.03
2023-03-22T02:09:24.452Z,98608.97
2023-03-22T02:12:12.371Z,98614.69
2023-03-22T02:15:01.215Z,98618.66
2023-03-22T02:18:07.520Z,98616.66
2023-03-22T02:21:30.330Z,98611.88
2023-03-22T02:24:48.365Z,98616.19
2023-03-22T02:28:05.070Z,98612.91
2023-03-22T02:31:10.433Z,98618.28
2023-03-22T02:34:25.799Z,98611.78
2023-03-22T02:37:37.504Z,98608.06
2023-03-22T02:40:16.486Z,98611.31
2023-03-22T02:42:57.571Z,98604.78
2023-03-22T02:45:35.558Z,98607.94
2023-03-22T02:48:13.654Z,98601.50
2023-03-22T02:50:52.886Z,98596.81
2023-03-22T02:53:26.556Z,98603.09
2023-03-22T02:56:03.018Z,98598.78
2023-03-22T02:58:39.348Z,98598.47
2023-03-22T03:01:18.020Z,98597.38
2023-03-22T03:03:50.780Z,98598.78
2023-03-22T03:06:25.804Z,98604.91
2023-03-22T03:08:58.096Z,98600.41
2023-03-22T03:11:30.740Z,98604.91
2023-03-22T03:14:00.950Z,98603.97
2023-03-22T03:16:35.229Z,98611.69
2023-03-22T03:19:15.921Z,98610.78
2023-03-22T03:21:55.906Z,98606.63
2023-03-22T03:24:37.229Z,98601.31
2023-03-22T03:27:17.119Z,98604.03
2023-03-22T03:29:52.345Z,98601.19
2023-03-22T03:32:28.402Z,98610.53
2023-03-22T03:35:03.617Z,98602.94
2023-03-22T03:37:39.967Z,98607.31
2023-03-22T03:40:14.500Z,98607.06
2023-03-22T03:42:51.720Z,98606.56
2023-03-22T03:45:22.475Z,98610.25
2023-03-22T03:47:57.152Z,98603.75
2023-03-22T03:50:28.353Z,98606.13
2023-03-22T03:52:58.555Z,98607.75
2023-03-22T03:55:30.822Z,98604.50
2023-03-22T03:58:01.072Z,98606.56
2023-03-22T04:00:30.292Z,98604.91
2023-03-22T04:03:19.706Z,98598.88
2023-03-22T04:06:23.704Z,98605.53
2023-03-22T04:08:58.360Z,98601.38
2023-03-22T04:11:32.370Z,98605.31
2023-03-22T04:14:05.076Z,98600.78
2023-03-22T04:16:33.829Z,98602.41
2023-03-22T04:19:02.745Z,98605.81
2023-03-22T04:21:31.517Z,98605.97
2023-03-22T04:24:02.986Z,98602.88
2023-03-22T04:26:37.097Z,98601.75
2023-03-22T04:29:27.512Z,98604.91
2023-03-22T04:32:02.573Z,98605.44
2023-03-22T04:34:43.788Z,98607.16
2023-03-22T04:37:16.144Z,98604.91
2023-03-22T04:39:55.571Z,98597.81
2023-03-22T04:42:36.088Z,98590.78
2023-03-22T04:45:16.158Z,98588.03
2023-03-22T04:47:49.357Z,98586.94
2023-03-22T04:50:18.499Z,98598.75
2023-03-22T04:52:53.001Z,98596.63
2023-03-22T04:55:22.087Z,98594.41
2023-03-22T04:57:51.260Z,98582.59
2023-03-22T05:00:22.365Z,98589.84
2023-03-22T05:02:51.860Z,98588.66
2023-03-22T05:05:32.335Z,98588.34
2023-03-22T05:08:03.399Z,98587.03
2023-03-22T05:10:33.371Z,98582.44
2023-03-22T05:13:02.440Z,98578.09
2023-03-22T05:15:35.849Z,98580.06
2023-03-22T05:18:06.753Z,98574.00
2023-03-22T05:20:37.688Z,98572.84
2023-03-22T05:23:19.506Z,98582.00
2023-03-22T05:25:54.380Z,98568.59
2023-03-22T05:28:24.373Z,98582.72
2023-03-22T05:31:11.920Z,98567.78
2023-03-22T05:33:47.650Z,98577.06
2023-03-22T05:36:21.056Z,98568.03
2023-03-22T05:39:08.225Z,98574.00
2023-03-22T05:41:37.485Z,98575.91
2023-03-22T05:44:07.556Z,98570.34
2023-03-22T05:46:40.966Z,98576.38
2023-03-22T05:49:35.368Z,98570.25
2023-03-22T05:52:06.143Z,98565.06
2023-03-22T05:54:58.012Z,98565.94
2023-03-22T05:57:27.355Z,98573.94
2023-03-22T05:59:56.090Z,98579.72
2023-03-22T06:02:34.159Z,98567.41
2023-03-22T06:05:03.265Z,98577.72
2023-03-22T06:07:33.591Z,98574.28
2023-03-22T06:10:29.834Z,98575.19
2023-03-22T06:12:58.761Z,98579.97
2023-03-22T06:15:31.648Z,98578.38
2023-03-22T06:18:11.090Z,98571.69
2023-03-22T06:20:44.388Z,98560.66
2023-03-22T06:23:20.491Z,98576.66
2023-03-22T06:25:50.532Z,98571.63
2023-03-22T06:28:20.289Z,98561.63
2023-03-22T06:30:55.187Z,98562.81
2023-03-22T06:33:41.693Z,98563.25
2023-03-22T06:36:39.424Z,98560.94
2023-03-22T06:39:15.597Z,98567.44
2023-03-22T06:41:48.194Z,98559.53
2023-03-22T06:44:17.647Z,98563.94
2023-03-22T06:46:52.350Z,98563.81
2023-03-22T06:49:40.680Z,98560.91
2023-03-22T06:52:11.126Z,98566.16
2023-03-22T06:54:40.513Z,98560.09
2023-03-22T06:57:12.293Z,98568.09
2023-03-22T06:59:41.298Z,98567.88
2023-03-22T07:02:13.443Z,98560.84
2023-03-22T07:04:48.722Z,98561.31
2023-03-22T07:07:18.213Z,98559.31
2023-03-22T07:09:47.413Z,98559.88
2023-03-22T07:12:16.843Z,98560.06
2023-03-22T07:14:45.938Z,98558.31
2023-03-22T07:17:37.156Z,98565.13
2023-03-22T07:20:09.508Z,98557.22
2023-03-22T07:25:41.521Z,98569.97
2023-03-22T07:28:23.988Z,98564.38
2023-03-22T07:31:02.294Z,98567.63
2023-03-22T07:33:35.060Z,98559.03
2023-03-22T07:36:06.942Z,98575.06
2023-03-22T07:38:36.193Z,98564.22
2023-03-22T07:41:09.133Z,98564.63
2023-03-22T07:44:02.414Z,98566.44
2023-03-22T07:46:46.192Z,98564.75
2023-03-22T07:49:30.314Z,98565.75
2023-03-22T07:52:06.814Z,98560.56
2023-03-22T07:54:36.192Z,98555.28
2023-03-22T07:57:08.684Z,98560.31
2023-03-22T07:59:44.248Z,98564.28
2023-03-22T08:02:14.619Z,98559.03
2023-03-22T08:04:53.369Z,98559.53
2023-03-22T08:07:44.908Z,98555.66
2023-03-22T08:10:16.271Z,98543.84
2023-03-22T08:12:45.618Z,98546.88
2023-03-22T08:15:22.544Z,98551.03
2023-03-22T08:17:51.688Z,98548.75
2023-03-22T08:20:30.632Z,98553.09
2023-03-22T08:23:05.655Z,98552.16
2023-03-22T08:26:03.518Z,98549.09
2023-03-22T08:28:33.884Z,98546.47
2023-03-22T08:31:02.843Z,98544.69
2023-03-22T08:33:31.590Z,98547.00
2023-03-22T08:36:10.089Z,98547.44
2023-03-22T08:38:46.980Z,98545.38
2023-03-22T08:41:18.706Z,98538.81
2023-03-22T08:43:47.754Z,98542.97
2023-03-22T08:46:18.132Z,98541.16
2023-03-22T08:48:51.875Z,98539.34
2023-03-22T08:51:28.362Z,98544.19
2023-03-22T08:54:11.214Z,98536.69
2023-03-22T08:57:10.369Z,98531.81
2023-03-22T08:59:53.471Z,98537.75
2023-03-22T09:02:27.640Z,98540.69
2023-03-22T09:04:57.857Z,98543.69
2023-03-22T09:07:27.521Z,98538.88
2023-03-22T09:10:13.828Z,98531.06
2023-03-22T09:12:45.364Z,98532.97
2023-03-22T09:15:14.074Z,98525.97
2023-03-22T09:17:47.277Z,98527.06
2023-03-22T09:20:16.489Z,98530.31
2023-03-22T09:22:47.969Z,98513.63
2023-03-22T09:25:21.378Z,98513.13
2023-03-22T09:27:51.622Z,98508.53
2023-03-22T09:30:20.615Z,98513.09
2023-03-22T09:32:49.407Z,98499.66
2023-03-22T09:35:19.382Z,98498.50
2023-03-22T09:38:03.749Z,98486.16
2023-03-22T09:40:36.381Z,98495.88
2023-03-22T09:43:10.435Z,98474.41
2023-03-22T09:45:45.072Z,98479.31
2023-03-22T09:48:19.460Z,98467.72
2023-03-22T09:50:52.795Z,98477.81
2023-03-22T09:53:25.791Z,98471.59
2023-03-22T09:56:03.220Z,98461.91
2023-03-22T09:58:39.696Z,98463.13
2023-03-22T10:01:35.376Z,98478.13
2023-03-22T10:04:31.233Z,98463.38
2023-03-22T10:07:10.841Z,98469.44
2023-03-22T10:09:55.484Z,98469.00
2023-03-22T10:12:30.721Z,98465.50
2023-03-22T10:15:07.834Z,98467.97
2023-03-22T10:17:38.785Z,98466.75
2023-03-22T10:20:20.543Z,98464.63
2023-03-22T10:22:53.341Z,98464.94
2023-03-22T10:25:34.189Z,98460.16
2023-03-22T10:28:16.624Z,98471.59
2023-03-22T10:30:53.486Z,98454.81
2023-03-22T10:33:50.224Z,98456.94
2023-03-22T10:36:25.565Z,98447.00
2023-03-22T10:39:02.005Z,98447.16
2023-03-22T10:41:33.646Z,98441.28
2023-03-22T10:44:07.389Z,98426.97
2023-03-22T10:46:43.072Z,98436.16
2023-03-22T10:49:24.264Z,98430.38
2023-03-22T10:51:57.889Z,98420.44
2023-03-22T10:54:27.622Z,98414.00
2023-03-22T10:56:56.574Z,98409.41
2023-03-22T10:59:47.345Z,98424.91
2023-03-22T11:02:22.861Z,98422.63
2023-03-22T11:04:54.902Z,98421.41
2023-03-22T11:07:36.603Z,98420.31
2023-03-22T11:10:32.859Z,98412.31
2023-03-22T11:13:23.183Z,98406.66
2023-03-22T11:15:59.972Z,98401.63
2023-03-22T11:18:34.000Z,98386.50
2023-03-22T11:21:09.289Z,98392.03
2023-03-22T11:23:44.217Z,98379.09
2023-03-22T11:26:15.562Z,98371.75
2023-03-22T11:28:50.452Z,98365.75
2023-03-22T11:31:22.330Z,98367.78
2023-03-22T11:33:59.662Z,98362.09
2023-03-22T11:36:29.780Z,98357.34
2023-03-22T11:39:01.309Z,98350.88
2023-03-22T11:41:32.121Z,98338.44
2023-03-22T11:44:06.725Z,98340.69
2023-03-22T11:46:38.804Z,98332.50
2023-03-22T11:49:15.703Z,98343.59
2023-03-22T11:51:45.767Z,98321.81
2023-03-22T11:54:28.496Z,98324.50
2023-03-22T11:57:02.150Z,98311.94
2023-03-22T11:59:40.074Z,98319.50
2023-03-22T12:02:22.677Z,98313.63
2023-03-22T12:05:01.899Z,98312.88
2023-03-22T12:07:34.118Z,98309.59
2023-03-22T12:10:12.687Z,98298.81
2023-03-22T12:12:50.744Z,98306.97
2023-03-22T12:15:24.938Z,98304.69
2023-03-22T12:18:07.730Z,98298.13
2023-03-22T12:20:46.870Z,98298.72
2023-03-22T12:23:19.523Z,98300.94
2023-03-22T12:25:54.680Z,98299.22
2023-03-22T12:28:32.287Z,98285.22
2023-03-22T12:31:03.911Z,98280.41
2023-03-22T12:33:44.189Z,98283.47
2023-03-22T12:36:19.953Z,98290.00
2023-03-22T12:38:53.709Z,98289.63
2023-03-22T12:41:32.660Z,98291.09
2023-03-22T12:44:10.838Z,98287.88
2023-03-22T12:46:51.383Z,98289.66
2023-03-22T12:49:31.292Z,98280.41
2023-03-22T12:52:15.976Z,98280.38
2023-03-22T12:54:48.570Z,98291.88
2023-03-22T12:57:18.647Z,98275.94
2023-03-22T12:59:52.963Z,98286.66
2023-03-22T13:02:32.169Z,98282.94
2023-03-22T13:05:05.215Z,98289.41
2023-03-22T13:07:41.150Z,98273.09
2023-03-22T13:11:01.435Z,98282.69
2023-03-22T13:13:50.087Z,98272.75
2023-03-22T13:16:24.785Z,98266.38
2023-03-22T13:19:04.445Z,98266.19
2023-03-22T13:21:37.702Z,98263.47
2023-03-22T13:24:24.073Z,98263.59
2023-03-22T13:27:00.260Z,98257.38
2023-03-22T13:29:39.033Z,98256.56
2023-03-22T13:32:30.107Z,98247.41
2023-03-22T13:34:59.121Z,98250.91
2023-03-22T13:37:37.020Z,98244.56
2023-03-22T13:40:15.006Z,98234.53
2023-03-22T13:42:44.330Z,98238.59
2023-03-22T13:45:33.794Z,98233.94
2023-03-22T13:48:12.995Z,98235.34
2023-03-22T13:50:42.933Z,98239.13
2023-03-22T13:53:22.661Z,98232.47
2023-03-22T13:57:12.563Z,98230.38
2023-03-22T14:00:12.017Z,98219.59
2023-03-22T14:02:45.651Z,98216.34
2023-03-22T14:05:18.781Z,98216.94
2023-03-22T14:07:54.526Z,98226.19
2023-03-22T14:10:32.366Z,98223.31
2023-03-22T14:13:33.813Z,98217.03
2023-03-22T14:16:16.199Z,98217.16
2023-03-22T14:18:49.827Z,98213.34
2023-03-22T14:21:30.846Z,98211.47
